Skip Navigation LinksHome page > Weather > Current weather Skip Navigation Links

Current Weather

North Las Vegas, Las Vegas, Nev.

For information only: do not use for flight planning or navigation.
Latest weather
Observation time Saturday, October 19, 2019 3:53 AM PDT
Local time Saturday, October 19, 2019 4:20 AM PDT
Flight conditions Visual Meteorological Conditions
Winds
Wind direction North-Northwest (330°)
Wind speed 13 mph
Visibility 10 mi.
Sky condition
Ceiling unlimited
Sky clear
Temperature 61°F
Dewpoint 7°F
Altimeter 29.92 in.Hg
Derived measurements
Relative humidity 11%
Density altitude 2380 ft.
Sea-level pressure 29.92 in.Hg
Remarks
Fully automated report.
Automated weather observing station with precipitation discriminator.
METAR KVGT 191053Z AUTO 33011KT 10SM CLR 16/M14 A2992 RMK AO2 SLP133 T01611139

Settings

Location code

InnerDrive.Weather 4.0.6770.0 Release CLR 4.0.30319.42000
Copyright ©2018 Inner Drive Technology. All rights reserved. Portions Copyright ©1986-2018 David Braverman.

Find weather

Site navigation


Skip Navigation Links

Place info

Page info

PayPal - The safer, easier way to pay online!

Return home.

Copyright ©2019 Inner Drive Technology. Purveyors of fine, hand-crafted computer software. Page printed 2019-10-19T11:20:23 UTC.